sensor_id;sensor_type;location;lat;lon;timestamp;P1;durP1;ratioP1;P2;durP2;ratioP2
76204;SDS011;64986;55.672;37.628;2023-02-15T00:01:07;1.77;;;0.65;;
76204;SDS011;64986;55.672;37.628;2023-02-15T00:03:33;2.75;;;1.27;;
76204;SDS011;64986;55.672;37.628;2023-02-15T00:05:59;2.08;;;0.63;;
76204;SDS011;64986;55.672;37.628;2023-02-15T00:08:25;1.60;;;0.70;;
76204;SDS011;64986;55.672;37.628;2023-02-15T00:10:50;2.03;;;0.77;;
76204;SDS011;64986;55.672;37.628;2023-02-15T00:13:16;2.45;;;0.80;;
76204;SDS011;64986;55.672;37.628;2023-02-15T00:15:41;1.00;;;0.70;;
76204;SDS011;64986;55.672;37.628;2023-02-15T00:18:06;1.63;;;0.63;;
76204;SDS011;64986;55.672;37.628;2023-02-15T00:20:32;2.30;;;1.00;;
76204;SDS011;64986;55.672;37.628;2023-02-15T00:22:58;3.85;;;0.70;;
76204;SDS011;64986;55.672;37.628;2023-02-15T00:25:24;3.28;;;0.80;;
76204;SDS011;64986;55.672;37.628;2023-02-15T00:27:50;4.18;;;1.05;;
76204;SDS011;64986;55.672;37.628;2023-02-15T00:30:15;2.65;;;0.50;;
76204;SDS011;64986;55.672;37.628;2023-02-15T00:32:41;5.60;;;0.98;;
76204;SDS011;64986;55.672;37.628;2023-02-15T00:35:06;1.75;;;0.82;;
76204;SDS011;64986;55.672;37.628;2023-02-15T00:37:32;3.28;;;0.80;;
76204;SDS011;64986;55.672;37.628;2023-02-15T00:39:58;3.72;;;0.77;;
76204;SDS011;64986;55.672;37.628;2023-02-15T00:42:23;1.83;;;0.80;;
76204;SDS011;64986;55.672;37.628;2023-02-15T00:44:49;1.65;;;0.85;;
76204;SDS011;64986;55.672;37.628;2023-02-15T00:47:14;4.10;;;0.50;;
76204;SDS011;64986;55.672;37.628;2023-02-15T00:49:40;0.82;;;0.60;;
76204;SDS011;64986;55.672;37.628;2023-02-15T00:52:05;3.40;;;1.02;;
76204;SDS011;64986;55.672;37.628;2023-02-15T00:54:31;1.05;;;0.65;;
76204;SDS011;64986;55.672;37.628;2023-02-15T00:56:56;5.70;;;1.10;;
76204;SDS011;64986;55.672;37.628;2023-02-15T00:59:21;3.13;;;1.30;;
76204;SDS011;64986;55.672;37.628;2023-02-15T01:01:47;7.95;;;1.63;;
76204;SDS011;64986;55.672;37.628;2023-02-15T01:04:12;3.53;;;1.48;;
76204;SDS011;64986;55.672;37.628;2023-02-15T01:06:38;2.22;;;0.90;;
76204;SDS011;64986;55.672;37.628;2023-02-15T01:09:03;8.55;;;1.70;;
76204;SDS011;64986;55.672;37.628;2023-02-15T01:11:29;5.97;;;1.30;;
76204;SDS011;64986;55.672;37.628;2023-02-15T01:13:55;4.18;;;1.15;;
76204;SDS011;64986;55.672;37.628;2023-02-15T01:16:23;8.20;;;1.35;;
76204;SDS011;64986;55.672;37.628;2023-02-15T01:18:50;3.58;;;1.20;;
76204;SDS011;64986;55.672;37.628;2023-02-15T01:21:17;4.68;;;1.10;;
76204;SDS011;64986;55.672;37.628;2023-02-15T01:23:47;3.95;;;1.30;;
76204;SDS011;64986;55.672;37.628;2023-02-15T01:26:14;5.05;;;1.30;;
76204;SDS011;64986;55.672;37.628;2023-02-15T01:28:40;4.07;;;1.00;;
76204;SDS011;64986;55.672;37.628;2023-02-15T01:31:06;4.10;;;1.48;;
76204;SDS011;64986;55.672;37.628;2023-02-15T01:33:34;3.08;;;1.10;;
76204;SDS011;64986;55.672;37.628;2023-02-15T01:36:00;5.05;;;1.02;;
76204;SDS011;64986;55.672;37.628;2023-02-15T01:38:26;3.35;;;1.38;;
76204;SDS011;64986;55.672;37.628;2023-02-15T01:40:51;3.85;;;1.05;;
76204;SDS011;64986;55.672;37.628;2023-02-15T01:43:18;6.60;;;1.10;;
76204;SDS011;64986;55.672;37.628;2023-02-15T01:45:43;4.47;;;1.10;;
76204;SDS011;64986;55.672;37.628;2023-02-15T01:48:20;7.20;;;1.20;;
76204;SDS011;64986;55.672;37.628;2023-02-15T01:50:53;5.18;;;1.35;;
76204;SDS011;64986;55.672;37.628;2023-02-15T01:53:27;2.13;;;0.80;;
76204;SDS011;64986;55.672;37.628;2023-02-15T01:56:06;4.22;;;0.90;;
76204;SDS011;64986;55.672;37.628;2023-02-15T01:58:40;6.15;;;1.10;;
76204;SDS011;64986;55.672;37.628;2023-02-15T02:01:07;4.97;;;1.45;;
76204;SDS011;64986;55.672;37.628;2023-02-15T02:06:05;3.63;;;0.80;;
76204;SDS011;64986;55.672;37.628;2023-02-15T02:08:31;2.65;;;0.73;;
76204;SDS011;64986;55.672;37.628;2023-02-15T02:10:57;2.55;;;1.13;;
76204;SDS011;64986;55.672;37.628;2023-02-15T02:13:22;2.55;;;0.60;;
76204;SDS011;64986;55.672;37.628;2023-02-15T02:29:06;2.70;;;0.98;;
76204;SDS011;64986;55.672;37.628;2023-02-15T02:34:16;1.42;;;0.75;;
76204;SDS011;64986;55.672;37.628;2023-02-15T02:36:49;2.03;;;0.63;;
76204;SDS011;64986;55.672;37.628;2023-02-15T02:39:30;1.83;;;0.70;;
76204;SDS011;64986;55.672;37.628;2023-02-15T02:44:43;4.55;;;1.70;;
76204;SDS011;64986;55.672;37.628;2023-02-15T02:47:18;2.10;;;0.70;;
76204;SDS011;64986;55.672;37.628;2023-02-15T02:49:45;1.88;;;0.73;;
76204;SDS011;64986;55.672;37.628;2023-02-15T02:54:57;1.95;;;0.85;;
76204;SDS011;64986;55.672;37.628;2023-02-15T02:57:24;2.70;;;0.73;;
76204;SDS011;64986;55.672;37.628;2023-02-15T02:59:52;2.60;;;0.35;;
76204;SDS011;64986;55.672;37.628;2023-02-15T03:02:21;2.15;;;0.80;;
76204;SDS011;64986;55.672;37.628;2023-02-15T03:04:53;3.05;;;1.63;;
76204;SDS011;64986;55.672;37.628;2023-02-15T03:07:28;3.45;;;1.20;;
76204;SDS011;64986;55.672;37.628;2023-02-15T03:09:57;5.40;;;1.10;;
76204;SDS011;64986;55.672;37.628;2023-02-15T03:12:30;1.85;;;0.77;;
76204;SDS011;64986;55.672;37.628;2023-02-15T03:15:00;5.70;;;1.00;;
76204;SDS011;64986;55.672;37.628;2023-02-15T03:17:27;3.00;;;1.00;;
76204;SDS011;64986;55.672;37.628;2023-02-15T03:19:57;4.97;;;1.40;;
76204;SDS011;64986;55.672;37.628;2023-02-15T03:23:12;5.20;;;1.35;;
76204;SDS011;64986;55.672;37.628;2023-02-15T03:25:34;4.82;;;1.13;;
76204;SDS011;64986;55.672;37.628;2023-02-15T03:28:06;7.78;;;1.67;;
76204;SDS011;64986;55.672;37.628;2023-02-15T03:30:36;2.75;;;1.17;;
76204;SDS011;64986;55.672;37.628;2023-02-15T03:33:05;3.25;;;1.10;;
76204;SDS011;64986;55.672;37.628;2023-02-15T03:38:36;4.75;;;1.17;;
76204;SDS011;64986;55.672;37.628;2023-02-15T03:41:25;7.70;;;1.60;;
76204;SDS011;64986;55.672;37.628;2023-02-15T03:43:58;7.07;;;1.73;;
76204;SDS011;64986;55.672;37.628;2023-02-15T03:46:37;3.10;;;1.20;;
76204;SDS011;64986;55.672;37.628;2023-02-15T03:49:10;3.67;;;0.93;;
76204;SDS011;64986;55.672;37.628;2023-02-15T03:51:42;5.32;;;0.93;;
76204;SDS011;64986;55.672;37.628;2023-02-15T03:54:19;5.93;;;1.67;;
76204;SDS011;64986;55.672;37.628;2023-02-15T03:57:04;2.75;;;0.93;;
76204;SDS011;64986;55.672;37.628;2023-02-15T03:59:54;3.92;;;0.90;;
76204;SDS011;64986;55.672;37.628;2023-02-15T04:03:04;2.92;;;0.98;;
76204;SDS011;64986;55.672;37.628;2023-02-15T04:05:27;6.78;;;1.17;;
76204;SDS011;64986;55.672;37.628;2023-02-15T04:07:52;3.50;;;1.00;;
76204;SDS011;64986;55.672;37.628;2023-02-15T04:10:17;5.25;;;1.17;;
76204;SDS011;64986;55.672;37.628;2023-02-15T04:13:02;4.07;;;1.27;;
76204;SDS011;64986;55.672;37.628;2023-02-15T04:15:27;4.32;;;1.35;;
76204;SDS011;64986;55.672;37.628;2023-02-15T04:18:11;6.05;;;2.05;;
76204;SDS011;64986;55.672;37.628;2023-02-15T04:20:37;2.95;;;0.90;;
76204;SDS011;64986;55.672;37.628;2023-02-15T04:23:21;3.45;;;1.48;;
76204;SDS011;64986;55.672;37.628;2023-02-15T04:26:05;3.20;;;1.10;;
76204;SDS011;64986;55.672;37.628;2023-02-15T04:28:31;2.40;;;1.20;;
76204;SDS011;64986;55.672;37.628;2023-02-15T04:30:57;2.33;;;1.02;;
76204;SDS011;64986;55.672;37.628;2023-02-15T04:33:22;4.53;;;1.30;;
76204;SDS011;64986;55.672;37.628;2023-02-15T04:35:48;7.15;;;1.40;;
76204;SDS011;64986;55.672;37.628;2023-02-15T04:38:13;4.78;;;1.13;;
76204;SDS011;64986;55.672;37.628;2023-02-15T04:40:39;4.18;;;0.85;;
76204;SDS011;64986;55.672;37.628;2023-02-15T04:43:04;3.83;;;1.17;;
76204;SDS011;64986;55.672;37.628;2023-02-15T04:45:30;2.28;;;1.15;;
76204;SDS011;64986;55.672;37.628;2023-02-15T04:47:56;2.97;;;1.20;;
76204;SDS011;64986;55.672;37.628;2023-02-15T04:50:21;4.95;;;1.33;;
76204;SDS011;64986;55.672;37.628;2023-02-15T04:52:47;4.93;;;1.30;;
76204;SDS011;64986;55.672;37.628;2023-02-15T04:55:12;2.80;;;1.05;;
76204;SDS011;64986;55.672;37.628;2023-02-15T04:57:39;4.70;;;1.20;;
76204;SDS011;64986;55.672;37.628;2023-02-15T05:00:05;9.43;;;1.75;;
76204;SDS011;64986;55.672;37.628;2023-02-15T05:02:31;5.82;;;1.60;;
76204;SDS011;64986;55.672;37.628;2023-02-15T05:04:56;6.70;;;0.93;;
76204;SDS011;64986;55.672;37.628;2023-02-15T05:07:22;3.00;;;1.00;;
76204;SDS011;64986;55.672;37.628;2023-02-15T05:09:48;3.58;;;1.42;;
76204;SDS011;64986;55.672;37.628;2023-02-15T05:12:14;3.38;;;1.30;;
76204;SDS011;64986;55.672;37.628;2023-02-15T05:14:39;5.47;;;1.50;;
76204;SDS011;64986;55.672;37.628;2023-02-15T05:17:04;2.38;;;1.02;;
76204;SDS011;64986;55.672;37.628;2023-02-15T05:19:30;6.88;;;1.42;;
76204;SDS011;64986;55.672;37.628;2023-02-15T05:21:56;4.65;;;1.45;;
76204;SDS011;64986;55.672;37.628;2023-02-15T05:24:21;1.67;;;1.08;;
76204;SDS011;64986;55.672;37.628;2023-02-15T05:27:06;4.32;;;1.05;;
76204;SDS011;64986;55.672;37.628;2023-02-15T05:29:50;4.70;;;1.42;;
76204;SDS011;64986;55.672;37.628;2023-02-15T05:32:15;5.30;;;1.20;;
76204;SDS011;64986;55.672;37.628;2023-02-15T05:34:41;3.28;;;1.20;;
76204;SDS011;64986;55.672;37.628;2023-02-15T05:37:06;5.53;;;1.33;;
76204;SDS011;64986;55.672;37.628;2023-02-15T05:39:32;4.22;;;1.48;;
76204;SDS011;64986;55.672;37.628;2023-02-15T05:42:01;4.38;;;1.40;;
76204;SDS011;64986;55.672;37.628;2023-02-15T05:44:27;5.00;;;1.50;;
76204;SDS011;64986;55.672;37.628;2023-02-15T05:46:52;6.70;;;1.83;;
76204;SDS011;64986;55.672;37.628;2023-02-15T05:49:18;3.20;;;1.60;;
76204;SDS011;64986;55.672;37.628;2023-02-15T05:51:43;5.82;;;1.27;;
76204;SDS011;64986;55.672;37.628;2023-02-15T05:54:09;2.30;;;1.10;;
76204;SDS011;64986;55.672;37.628;2023-02-15T05:56:34;1.52;;;1.10;;
76204;SDS011;64986;55.672;37.628;2023-02-15T05:59:00;2.25;;;1.23;;
76204;SDS011;64986;55.672;37.628;2023-02-15T06:01:25;4.50;;;1.45;;
76204;SDS011;64986;55.672;37.628;2023-02-15T06:03:51;4.93;;;1.33;;
76204;SDS011;64986;55.672;37.628;2023-02-15T06:06:17;3.40;;;1.42;;
76204;SDS011;64986;55.672;37.628;2023-02-15T06:08:42;4.75;;;1.52;;
76204;SDS011;64986;55.672;37.628;2023-02-15T06:11:08;4.47;;;1.48;;
76204;SDS011;64986;55.672;37.628;2023-02-15T06:13:34;7.78;;;1.75;;
76204;SDS011;64986;55.672;37.628;2023-02-15T06:16:00;5.38;;;1.73;;
76204;SDS011;64986;55.672;37.628;2023-02-15T06:18:25;3.20;;;1.20;;
76204;SDS011;64986;55.672;37.628;2023-02-15T06:20:51;5.00;;;1.95;;
76204;SDS011;64986;55.672;37.628;2023-02-15T06:23:16;4.00;;;1.73;;
76204;SDS011;64986;55.672;37.628;2023-02-15T06:25:44;6.00;;;1.60;;
76204;SDS011;64986;55.672;37.628;2023-02-15T06:28:10;5.00;;;1.67;;
76204;SDS011;64986;55.672;37.628;2023-02-15T06:30:35;5.55;;;1.92;;
76204;SDS011;64986;55.672;37.628;2023-02-15T06:33:01;5.15;;;2.00;;
76204;SDS011;64986;55.672;37.628;2023-02-15T06:35:27;3.88;;;2.17;;
76204;SDS011;64986;55.672;37.628;2023-02-15T06:37:52;4.25;;;2.15;;
76204;SDS011;64986;55.672;37.628;2023-02-15T06:40:18;4.55;;;1.67;;
76204;SDS011;64986;55.672;37.628;2023-02-15T06:42:43;2.35;;;0.90;;
76204;SDS011;64986;55.672;37.628;2023-02-15T06:45:10;7.30;;;1.88;;
76204;SDS011;64986;55.672;37.628;2023-02-15T06:47:36;7.78;;;2.13;;
76204;SDS011;64986;55.672;37.628;2023-02-15T06:50:03;4.22;;;1.90;;
76204;SDS011;64986;55.672;37.628;2023-02-15T06:52:30;4.15;;;1.73;;
76204;SDS011;64986;55.672;37.628;2023-02-15T06:54:55;3.88;;;1.98;;
76204;SDS011;64986;55.672;37.628;2023-02-15T06:57:21;5.55;;;2.15;;
76204;SDS011;64986;55.672;37.628;2023-02-15T06:59:46;7.13;;;2.30;;
76204;SDS011;64986;55.672;37.628;2023-02-15T07:02:12;2.22;;;1.20;;
76204;SDS011;64986;55.672;37.628;2023-02-15T07:04:38;7.40;;;1.77;;
76204;SDS011;64986;55.672;37.628;2023-02-15T07:07:04;5.55;;;2.10;;
76204;SDS011;64986;55.672;37.628;2023-02-15T07:09:33;4.95;;;1.40;;
76204;SDS011;64986;55.672;37.628;2023-02-15T07:11:59;7.80;;;1.58;;
76204;SDS011;64986;55.672;37.628;2023-02-15T07:14:42;4.70;;;1.38;;
76204;SDS011;64986;55.672;37.628;2023-02-15T07:17:08;7.43;;;2.72;;
76204;SDS011;64986;55.672;37.628;2023-02-15T07:19:33;3.00;;;1.52;;
76204;SDS011;64986;55.672;37.628;2023-02-15T07:21:59;7.88;;;2.03;;
76204;SDS011;64986;55.672;37.628;2023-02-15T07:24:24;4.72;;;1.85;;
76204;SDS011;64986;55.672;37.628;2023-02-15T07:26:50;4.55;;;2.13;;
76204;SDS011;64986;55.672;37.628;2023-02-15T07:29:15;4.55;;;1.70;;
76204;SDS011;64986;55.672;37.628;2023-02-15T07:31:41;7.47;;;1.73;;
76204;SDS011;64986;55.672;37.628;2023-02-15T07:34:10;6.97;;;1.85;;
76204;SDS011;64986;55.672;37.628;2023-02-15T07:36:36;4.93;;;1.67;;
76204;SDS011;64986;55.672;37.628;2023-02-15T07:39:02;5.85;;;2.03;;
76204;SDS011;64986;55.672;37.628;2023-02-15T07:41:28;3.55;;;1.67;;
76204;SDS011;64986;55.672;37.628;2023-02-15T07:43:53;7.43;;;2.20;;
76204;SDS011;64986;55.672;37.628;2023-02-15T07:46:19;7.22;;;2.00;;
76204;SDS011;64986;55.672;37.628;2023-02-15T07:48:45;7.35;;;2.35;;
76204;SDS011;64986;55.672;37.628;2023-02-15T07:51:11;4.75;;;1.80;;
76204;SDS011;64986;55.672;37.628;2023-02-15T07:53:39;5.93;;;2.58;;
76204;SDS011;64986;55.672;37.628;2023-02-15T07:56:06;6.95;;;1.92;;
76204;SDS011;64986;55.672;37.628;2023-02-15T07:58:34;9.13;;;2.72;;
76204;SDS011;64986;55.672;37.628;2023-02-15T08:01:20;8.90;;;2.50;;
76204;SDS011;64986;55.672;37.628;2023-02-15T08:03:46;4.60;;;1.83;;
76204;SDS011;64986;55.672;37.628;2023-02-15T08:06:11;4.35;;;1.50;;
76204;SDS011;64986;55.672;37.628;2023-02-15T08:08:38;3.00;;;1.65;;
76204;SDS011;64986;55.672;37.628;2023-02-15T08:11:15;7.88;;;2.75;;
76204;SDS011;64986;55.672;37.628;2023-02-15T08:14:11;3.17;;;2.03;;
76204;SDS011;64986;55.672;37.628;2023-02-15T08:16:39;8.30;;;2.30;;
76204;SDS011;64986;55.672;37.628;2023-02-15T08:24:39;4.80;;;1.90;;
76204;SDS011;64986;55.672;37.628;2023-02-15T08:27:09;6.32;;;1.92;;
76204;SDS011;64986;55.672;37.628;2023-02-15T08:29:36;7.50;;;2.25;;
76204;SDS011;64986;55.672;37.628;2023-02-15T08:32:04;7.88;;;2.88;;
76204;SDS011;64986;55.672;37.628;2023-02-15T08:34:33;5.93;;;2.20;;
76204;SDS011;64986;55.672;37.628;2023-02-15T08:37:00;4.45;;;1.90;;
76204;SDS011;64986;55.672;37.628;2023-02-15T08:39:26;4.68;;;1.80;;
76204;SDS011;64986;55.672;37.628;2023-02-15T08:41:52;3.75;;;1.73;;
76204;SDS011;64986;55.672;37.628;2023-02-15T08:44:18;4.03;;;2.08;;
76204;SDS011;64986;55.672;37.628;2023-02-15T08:46:45;7.30;;;2.10;;
76204;SDS011;64986;55.672;37.628;2023-02-15T08:49:13;8.40;;;3.08;;
76204;SDS011;64986;55.672;37.628;2023-02-15T08:51:41;4.63;;;1.95;;
76204;SDS011;64986;55.672;37.628;2023-02-15T08:54:07;5.18;;;1.70;;
76204;SDS011;64986;55.672;37.628;2023-02-15T08:56:36;3.95;;;1.77;;
76204;SDS011;64986;55.672;37.628;2023-02-15T08:59:03;6.57;;;1.88;;
76204;SDS011;64986;55.672;37.628;2023-02-15T09:01:31;5.35;;;1.30;;
76204;SDS011;64986;55.672;37.628;2023-02-15T09:04:02;3.10;;;1.40;;
76204;SDS011;64986;55.672;37.628;2023-02-15T09:06:35;3.13;;;1.75;;
76204;SDS011;64986;55.672;37.628;2023-02-15T09:09:02;4.13;;;1.80;;
76204;SDS011;64986;55.672;37.628;2023-02-15T09:11:29;2.58;;;1.40;;
76204;SDS011;64986;55.672;37.628;2023-02-15T09:14:02;3.42;;;1.63;;
76204;SDS011;64986;55.672;37.628;2023-02-15T09:16:31;3.72;;;1.67;;
76204;SDS011;64986;55.672;37.628;2023-02-15T09:18:59;5.07;;;2.08;;
76204;SDS011;64986;55.672;37.628;2023-02-15T09:21:29;4.32;;;1.42;;
76204;SDS011;64986;55.672;37.628;2023-02-15T09:23:56;4.47;;;1.73;;
76204;SDS011;64986;55.672;37.628;2023-02-15T09:26:25;4.78;;;1.63;;
76204;SDS011;64986;55.672;37.628;2023-02-15T09:28:52;3.08;;;1.80;;
76204;SDS011;64986;55.672;37.628;2023-02-15T09:31:21;3.03;;;1.30;;
76204;SDS011;64986;55.672;37.628;2023-02-15T09:33:48;4.22;;;1.98;;
76204;SDS011;64986;55.672;37.628;2023-02-15T09:36:15;2.55;;;1.30;;
76204;SDS011;64986;55.672;37.628;2023-02-15T09:52:08;6.30;;;1.73;;
76204;SDS011;64986;55.672;37.628;2023-02-15T10:13:57;3.47;;;1.45;;
76204;SDS011;64986;55.672;37.628;2023-02-15T10:19:20;3.17;;;1.73;;
76204;SDS011;64986;55.672;37.628;2023-02-15T10:21:51;4.45;;;1.90;;
76204;SDS011;64986;55.672;37.628;2023-02-15T10:24:55;4.05;;;1.73;;
76204;SDS011;64986;55.672;37.628;2023-02-15T10:27:37;1.95;;;1.25;;
76204;SDS011;64986;55.672;37.628;2023-02-15T10:30:13;5.03;;;1.77;;
76204;SDS011;64986;55.672;37.628;2023-02-15T10:41:07;4.03;;;1.20;;
76204;SDS011;64986;55.672;37.628;2023-02-15T10:55:18;2.50;;;0.90;;
76204;SDS011;64986;55.672;37.628;2023-02-15T11:00:50;7.50;;;1.67;;
76204;SDS011;64986;55.672;37.628;2023-02-15T11:06:16;3.25;;;1.25;;
76204;SDS011;64986;55.672;37.628;2023-02-15T11:08:46;2.85;;;1.38;;
76204;SDS011;64986;55.672;37.628;2023-02-15T11:11:22;1.73;;;0.93;;
76204;SDS011;64986;55.672;37.628;2023-02-15T11:14:38;4.53;;;1.55;;
76204;SDS011;64986;55.672;37.628;2023-02-15T11:16:59;3.95;;;1.60;;
76204;SDS011;64986;55.672;37.628;2023-02-15T11:19:31;1.77;;;1.15;;
76204;SDS011;64986;55.672;37.628;2023-02-15T11:22:04;3.95;;;1.40;;
76204;SDS011;64986;55.672;37.628;2023-02-15T11:24:31;1.33;;;0.85;;
76204;SDS011;64986;55.672;37.628;2023-02-15T11:27:20;1.45;;;0.70;;
76204;SDS011;64986;55.672;37.628;2023-02-15T11:29:57;4.32;;;1.33;;
76204;SDS011;64986;55.672;37.628;2023-02-15T11:32:33;2.80;;;0.85;;
76204;SDS011;64986;55.672;37.628;2023-02-15T11:43:06;3.38;;;1.50;;
76204;SDS011;64986;55.672;37.628;2023-02-15T11:45:44;2.45;;;0.90;;
76204;SDS011;64986;55.672;37.628;2023-02-15T11:48:12;4.20;;;1.15;;
76204;SDS011;64986;55.672;37.628;2023-02-15T11:50:39;2.10;;;1.10;;
76204;SDS011;64986;55.672;37.628;2023-02-15T11:53:13;2.28;;;0.60;;
76204;SDS011;64986;55.672;37.628;2023-02-15T11:55:44;2.47;;;0.60;;
76204;SDS011;64986;55.672;37.628;2023-02-15T11:58:15;6.00;;;1.38;;
76204;SDS011;64986;55.672;37.628;2023-02-15T12:01:02;4.05;;;1.50;;
76204;SDS011;64986;55.672;37.628;2023-02-15T12:06:55;3.72;;;1.70;;
76204;SDS011;64986;55.672;37.628;2023-02-15T12:12:19;2.45;;;1.63;;
76204;SDS011;64986;55.672;37.628;2023-02-15T12:14:52;2.22;;;0.90;;
76204;SDS011;64986;55.672;37.628;2023-02-15T12:17:23;2.58;;;1.27;;
76204;SDS011;64986;55.672;37.628;2023-02-15T12:19:54;3.30;;;1.27;;
76204;SDS011;64986;55.672;37.628;2023-02-15T12:22:26;1.45;;;0.98;;
76204;SDS011;64986;55.672;37.628;2023-02-15T12:24:55;0.82;;;0.60;;
76204;SDS011;64986;55.672;37.628;2023-02-15T12:27:33;1.63;;;0.90;;
76204;SDS011;64986;55.672;37.628;2023-02-15T12:30:01;4.10;;;0.85;;
76204;SDS011;64986;55.672;37.628;2023-02-15T12:32:54;2.08;;;1.02;;
76204;SDS011;64986;55.672;37.628;2023-02-15T12:38:05;1.45;;;0.95;;
76204;SDS011;64986;55.672;37.628;2023-02-15T12:40:37;2.13;;;0.90;;
76204;SDS011;64986;55.672;37.628;2023-02-15T12:43:03;3.22;;;1.08;;
76204;SDS011;64986;55.672;37.628;2023-02-15T12:45:34;1.92;;;1.17;;
76204;SDS011;64986;55.672;37.628;2023-02-15T12:48:18;1.83;;;0.80;;
76204;SDS011;64986;55.672;37.628;2023-02-15T12:50:49;7.30;;;1.27;;
76204;SDS011;64986;55.672;37.628;2023-02-15T12:55:52;1.30;;;1.00;;
76204;SDS011;64986;55.672;37.628;2023-02-15T13:01:09;3.80;;;1.10;;
76204;SDS011;64986;55.672;37.628;2023-02-15T13:06:21;2.53;;;0.90;;
76204;SDS011;64986;55.672;37.628;2023-02-15T13:08:51;2.75;;;1.08;;
76204;SDS011;64986;55.672;37.628;2023-02-15T13:11:40;2.03;;;1.20;;
76204;SDS011;64986;55.672;37.628;2023-02-15T13:14:22;0.70;;;0.50;;
76204;SDS011;64986;55.672;37.628;2023-02-15T13:16:56;6.22;;;1.20;;
76204;SDS011;64986;55.672;37.628;2023-02-15T13:19:33;3.08;;;1.20;;
76204;SDS011;64986;55.672;37.628;2023-02-15T13:22:02;2.03;;;1.00;;
76204;SDS011;64986;55.672;37.628;2023-02-15T13:24:35;3.45;;;0.90;;
76204;SDS011;64986;55.672;37.628;2023-02-15T13:27:05;2.58;;;0.77;;
76204;SDS011;64986;55.672;37.628;2023-02-15T13:29:38;1.67;;;0.77;;
76204;SDS011;64986;55.672;37.628;2023-02-15T13:32:50;1.20;;;0.70;;
76204;SDS011;64986;55.672;37.628;2023-02-15T13:35:02;2.65;;;0.90;;
76204;SDS011;64986;55.672;37.628;2023-02-15T13:37:47;0.80;;;0.80;;
76204;SDS011;64986;55.672;37.628;2023-02-15T13:40:32;1.23;;;0.60;;
76204;SDS011;64986;55.672;37.628;2023-02-15T13:43:10;1.80;;;0.80;;
76204;SDS011;64986;55.672;37.628;2023-02-15T14:00:04;0.82;;;0.57;;
76204;SDS011;64986;55.672;37.628;2023-02-15T14:15:36;1.40;;;0.60;;
76204;SDS011;64986;55.672;37.628;2023-02-15T14:21:19;6.18;;;1.00;;
76204;SDS011;64986;55.672;37.628;2023-02-15T14:24:00;2.80;;;1.52;;
76204;SDS011;64986;55.672;37.628;2023-02-15T14:31:59;3.65;;;1.63;;
76204;SDS011;64986;55.672;37.628;2023-02-15T14:37:13;2.10;;;1.25;;
76204;SDS011;64986;55.672;37.628;2023-02-15T14:39:51;1.25;;;0.82;;
76204;SDS011;64986;55.672;37.628;2023-02-15T14:42:56;2.33;;;1.30;;
76204;SDS011;64986;55.672;37.628;2023-02-15T14:45:31;3.60;;;1.13;;
76204;SDS011;64986;55.672;37.628;2023-02-15T14:50:40;1.85;;;0.88;;
76204;SDS011;64986;55.672;37.628;2023-02-15T14:53:15;2.90;;;0.90;;
76204;SDS011;64986;55.672;37.628;2023-02-15T14:55:40;1.95;;;1.05;;
76204;SDS011;64986;55.672;37.628;2023-02-15T14:58:15;2.58;;;1.13;;
76204;SDS011;64986;55.672;37.628;2023-02-15T15:00:40;1.35;;;0.90;;
76204;SDS011;64986;55.672;37.628;2023-02-15T15:03:10;4.20;;;1.38;;
76204;SDS011;64986;55.672;37.628;2023-02-15T15:05:48;2.63;;;1.02;;
76204;SDS011;64986;55.672;37.628;2023-02-15T15:08:32;2.03;;;0.85;;
76204;SDS011;64986;55.672;37.628;2023-02-15T15:14:07;3.83;;;1.25;;
76204;SDS011;64986;55.672;37.628;2023-02-15T15:19:08;3.03;;;0.98;;
76204;SDS011;64986;55.672;37.628;2023-02-15T15:38:00;1.40;;;0.70;;
76204;SDS011;64986;55.672;37.628;2023-02-15T15:49:00;3.45;;;1.10;;
76204;SDS011;64986;55.672;37.628;2023-02-15T15:51:47;1.67;;;1.00;;
76204;SDS011;64986;55.672;37.628;2023-02-15T15:54:15;2.88;;;1.05;;
76204;SDS011;64986;55.672;37.628;2023-02-15T15:57:00;2.35;;;0.90;;
76204;SDS011;64986;55.672;37.628;2023-02-15T15:59:32;2.05;;;1.13;;
76204;SDS011;64986;55.672;37.628;2023-02-15T16:02:06;2.63;;;1.00;;
76204;SDS011;64986;55.672;37.628;2023-02-15T16:04:35;2.17;;;0.80;;
76204;SDS011;64986;55.672;37.628;2023-02-15T16:07:14;1.88;;;0.95;;
76204;SDS011;64986;55.672;37.628;2023-02-15T16:09:58;0.95;;;0.80;;
76204;SDS011;64986;55.672;37.628;2023-02-15T16:12:24;1.52;;;0.80;;
76204;SDS011;64986;55.672;37.628;2023-02-15T16:14:52;4.93;;;2.15;;
76204;SDS011;64986;55.672;37.628;2023-02-15T16:17:20;3.05;;;1.00;;
76204;SDS011;64986;55.672;37.628;2023-02-15T16:19:48;1.45;;;0.60;;
76204;SDS011;64986;55.672;37.628;2023-02-15T16:22:23;2.83;;;0.70;;
76204;SDS011;64986;55.672;37.628;2023-02-15T16:30:16;1.00;;;0.60;;
76204;SDS011;64986;55.672;37.628;2023-02-15T16:32:46;2.15;;;0.70;;
76204;SDS011;64986;55.672;37.628;2023-02-15T16:35:13;2.55;;;1.08;;
76204;SDS011;64986;55.672;37.628;2023-02-15T16:37:41;2.65;;;0.90;;
76204;SDS011;64986;55.672;37.628;2023-02-15T16:40:11;0.57;;;0.50;;
76204;SDS011;64986;55.672;37.628;2023-02-15T16:45:22;2.85;;;0.90;;
76204;SDS011;64986;55.672;37.628;2023-02-15T16:47:53;1.98;;;1.10;;
76204;SDS011;64986;55.672;37.628;2023-02-15T16:50:34;1.52;;;0.80;;
76204;SDS011;64986;55.672;37.628;2023-02-15T16:53:03;2.17;;;0.90;;
76204;SDS011;64986;55.672;37.628;2023-02-15T16:55:35;4.45;;;1.10;;
76204;SDS011;64986;55.672;37.628;2023-02-15T16:58:04;2.83;;;1.10;;
76204;SDS011;64986;55.672;37.628;2023-02-15T17:00:36;3.88;;;1.85;;
76204;SDS011;64986;55.672;37.628;2023-02-15T17:03:04;3.70;;;1.50;;
76204;SDS011;64986;55.672;37.628;2023-02-15T17:05:44;1.25;;;0.80;;
76204;SDS011;64986;55.672;37.628;2023-02-15T17:10:41;0.73;;;0.60;;
76204;SDS011;64986;55.672;37.628;2023-02-15T17:13:13;1.88;;;0.55;;
76204;SDS011;64986;55.672;37.628;2023-02-15T17:15:41;1.38;;;0.70;;
76204;SDS011;64986;55.672;37.628;2023-02-15T17:18:14;0.65;;;0.50;;
76204;SDS011;64986;55.672;37.628;2023-02-15T17:20:43;1.42;;;0.65;;
76204;SDS011;64986;55.672;37.628;2023-02-15T17:25:47;1.45;;;0.70;;
76204;SDS011;64986;55.672;37.628;2023-02-15T17:28:20;3.85;;;1.00;;
76204;SDS011;64986;55.672;37.628;2023-02-15T17:30:49;2.50;;;0.93;;
76204;SDS011;64986;55.672;37.628;2023-02-15T17:33:22;2.45;;;1.33;;
76204;SDS011;64986;55.672;37.628;2023-02-15T17:36:13;0.73;;;0.60;;
76204;SDS011;64986;55.672;37.628;2023-02-15T17:41:47;3.50;;;0.98;;
76204;SDS011;64986;55.672;37.628;2023-02-15T17:44:12;2.10;;;0.90;;
76204;SDS011;64986;55.672;37.628;2023-02-15T17:46:40;2.72;;;1.10;;
76204;SDS011;64986;55.672;37.628;2023-02-15T17:49:10;1.55;;;0.80;;
76204;SDS011;64986;55.672;37.628;2023-02-15T17:51:47;2.72;;;1.23;;
76204;SDS011;64986;55.672;37.628;2023-02-15T17:54:13;1.58;;;0.60;;
76204;SDS011;64986;55.672;37.628;2023-02-15T17:56:57;4.10;;;1.10;;
76204;SDS011;64986;55.672;37.628;2023-02-15T17:59:29;1.95;;;0.98;;
76204;SDS011;64986;55.672;37.628;2023-02-15T18:01:55;2.65;;;1.35;;
76204;SDS011;64986;55.672;37.628;2023-02-15T18:04:39;1.88;;;0.90;;
76204;SDS011;64986;55.672;37.628;2023-02-15T18:07:23;1.52;;;1.02;;
76204;SDS011;64986;55.672;37.628;2023-02-15T18:10:17;1.77;;;0.85;;
76204;SDS011;64986;55.672;37.628;2023-02-15T18:13:02;1.60;;;0.90;;
76204;SDS011;64986;55.672;37.628;2023-02-15T18:15:28;1.42;;;0.52;;
76204;SDS011;64986;55.672;37.628;2023-02-15T18:17:54;1.42;;;0.70;;
76204;SDS011;64986;55.672;37.628;2023-02-15T18:20:21;3.33;;;0.68;;